KNQA/NQA METAR and TAF weather

Enter ICAO airport designator
Station Type Date Time Source
KNQA METAR 2022/06/26 07:35 UTC NOAA

KNQA 260735Z AUTO 00000KT 10SM 22/21 A2999 RMK A01


Station Type Date Time Source
KNQA Decoded METAR 2022/06/26 07:35 UTC NOAA

Millington, Millington Municipal Airport, TN, United States (KNQA) 35-21-24N 089-52-13W
Jun 26, 2022 - 03:35 AM EDT / 2022.06.26 0735 UTC
Wind: Calm:0
Visibility: 10 mile(s):0
Temperature: 71 F (22 C)
Dew Point: 69 F (21 C)
Relative Humidity: 94%
Pressure (altimeter): 29.99 in. Hg (1015 hPa)
ob: KNQA 260735Z AUTO 00000KT 10SM 22/21 A2999 RMK A01
cycle: 7

Station Type Date Time Source
KNQA TAF UTC NOAA

Error!

Example: see airport list